sensor_id;sensor_type;location;lat;lon;timestamp;temperature;humidity
10042;DHT22;5061;49.068;12.058;2022-11-27T00:00:31;2.00;99.90
10042;DHT22;5061;49.068;12.058;2022-11-27T00:03:53;1.90;99.90
10042;DHT22;5061;49.068;12.058;2022-11-27T00:07:14;2.00;99.90
10042;DHT22;5061;49.068;12.058;2022-11-27T00:10:35;1.90;99.90
10042;DHT22;5061;49.068;12.058;2022-11-27T00:13:56;1.90;99.90
10042;DHT22;5061;49.068;12.058;2022-11-27T00:17:16;2.00;99.90
10042;DHT22;5061;49.068;12.058;2022-11-27T00:20:37;1.90;99.90
10042;DHT22;5061;49.068;12.058;2022-11-27T00:23:59;2.00;99.90
10042;DHT22;5061;49.068;12.058;2022-11-27T00:27:20;2.00;99.90
10042;DHT22;5061;49.068;12.058;2022-11-27T00:30:41;1.90;99.90
10042;DHT22;5061;49.068;12.058;2022-11-27T00:34:04;1.90;99.90
10042;DHT22;5061;49.068;12.058;2022-11-27T00:37:25;1.90;99.90
10042;DHT22;5061;49.068;12.058;2022-11-27T00:40:46;1.90;99.90
10042;DHT22;5061;49.068;12.058;2022-11-27T00:44:06;1.80;99.90
10042;DHT22;5061;49.068;12.058;2022-11-27T00:47:27;1.80;99.90
10042;DHT22;5061;49.068;12.058;2022-11-27T00:50:48;1.70;99.90
10042;DHT22;5061;49.068;12.058;2022-11-27T00:54:08;1.70;99.90
10042;DHT22;5061;49.068;12.058;2022-11-27T00:57:29;1.70;99.90
10042;DHT22;5061;49.068;12.058;2022-11-27T01:00:56;1.70;99.90
10042;DHT22;5061;49.068;12.058;2022-11-27T01:04:17;1.70;99.90
10042;DHT22;5061;49.068;12.058;2022-11-27T01:07:37;1.70;99.90
10042;DHT22;5061;49.068;12.058;2022-11-27T01:10:58;1.70;99.90
10042;DHT22;5061;49.068;12.058;2022-11-27T01:14:19;1.70;99.90
10042;DHT22;5061;49.068;12.058;2022-11-27T01:17:39;1.70;99.90
10042;DHT22;5061;49.068;12.058;2022-11-27T01:21:00;1.70;99.90
10042;DHT22;5061;49.068;12.058;2022-11-27T01:24:21;1.80;99.90
10042;DHT22;5061;49.068;12.058;2022-11-27T01:27:42;1.70;99.90
10042;DHT22;5061;49.068;12.058;2022-11-27T01:31:05;1.70;99.90
10042;DHT22;5061;49.068;12.058;2022-11-27T01:34:26;1.80;99.90
10042;DHT22;5061;49.068;12.058;2022-11-27T01:37:46;1.80;99.90
10042;DHT22;5061;49.068;12.058;2022-11-27T01:41:15;1.80;99.90
10042;DHT22;5061;49.068;12.058;2022-11-27T01:47:58;1.80;99.90
10042;DHT22;5061;49.068;12.058;2022-11-27T01:51:21;1.80;99.90
10042;DHT22;5061;49.068;12.058;2022-11-27T01:54:48;1.80;99.90
10042;DHT22;5061;49.068;12.058;2022-11-27T01:58:14;1.80;99.90
10042;DHT22;5061;49.068;12.058;2022-11-27T02:01:37;1.80;99.90
10042;DHT22;5061;49.068;12.058;2022-11-27T02:04:57;1.80;99.90
10042;DHT22;5061;49.068;12.058;2022-11-27T02:08:18;1.80;99.90
10042;DHT22;5061;49.068;12.058;2022-11-27T02:12:08;1.80;99.90
10042;DHT22;5061;49.068;12.058;2022-11-27T02:23:34;1.80;99.90
10042;DHT22;5061;49.068;12.058;2022-11-27T02:28:20;1.80;99.90
10042;DHT22;5061;49.068;12.058;2022-11-27T02:31:21;1.80;99.90
10042;DHT22;5061;49.068;12.058;2022-11-27T02:35:08;1.80;99.90
10042;DHT22;5061;49.068;12.058;2022-11-27T02:38:39;1.80;99.90
10042;DHT22;5061;49.068;12.058;2022-11-27T02:42:09;1.80;99.90
10042;DHT22;5061;49.068;12.058;2022-11-27T02:45:34;1.80;99.90
10042;DHT22;5061;49.068;12.058;2022-11-27T02:49:01;1.80;99.90
10042;DHT22;5061;49.068;12.058;2022-11-27T02:52:25;1.90;99.90
10042;DHT22;5061;49.068;12.058;2022-11-27T02:55:47;1.90;99.90
10042;DHT22;5061;49.068;12.058;2022-11-27T02:59:12;1.90;99.90
10042;DHT22;5061;49.068;12.058;2022-11-27T03:02:38;1.90;99.90
10042;DHT22;5061;49.068;12.058;2022-11-27T03:06:02;1.90;99.90
10042;DHT22;5061;49.068;12.058;2022-11-27T03:09:35;1.90;99.90
10042;DHT22;5061;49.068;12.058;2022-11-27T03:12:57;1.90;99.90
10042;DHT22;5061;49.068;12.058;2022-11-27T03:23:30;2.00;99.90
10042;DHT22;5061;49.068;12.058;2022-11-27T03:26:50;1.90;99.90
10042;DHT22;5061;49.068;12.058;2022-11-27T03:30:12;2.00;99.90
10042;DHT22;5061;49.068;12.058;2022-11-27T03:33:33;2.00;99.90
10042;DHT22;5061;49.068;12.058;2022-11-27T03:36:54;2.00;99.90
10042;DHT22;5061;49.068;12.058;2022-11-27T03:40:16;2.00;99.90
10042;DHT22;5061;49.068;12.058;2022-11-27T03:43:43;2.00;99.90
10042;DHT22;5061;49.068;12.058;2022-11-27T03:47:13;2.00;99.90
10042;DHT22;5061;49.068;12.058;2022-11-27T03:50:59;2.00;99.90
10042;DHT22;5061;49.068;12.058;2022-11-27T03:54:25;2.00;99.90
10042;DHT22;5061;49.068;12.058;2022-11-27T03:58:00;2.00;99.90
10042;DHT22;5061;49.068;12.058;2022-11-27T04:01:24;1.90;99.90
10042;DHT22;5061;49.068;12.058;2022-11-27T04:04:45;2.00;99.90
10042;DHT22;5061;49.068;12.058;2022-11-27T04:08:06;1.90;99.90
10042;DHT22;5061;49.068;12.058;2022-11-27T04:11:26;2.00;99.90
10042;DHT22;5061;49.068;12.058;2022-11-27T04:14:47;1.90;99.90
10042;DHT22;5061;49.068;12.058;2022-11-27T04:18:08;1.90;99.90
10042;DHT22;5061;49.068;12.058;2022-11-27T04:21:28;1.90;99.90
10042;DHT22;5061;49.068;12.058;2022-11-27T04:24:49;1.90;99.90
10042;DHT22;5061;49.068;12.058;2022-11-27T04:28:10;1.80;99.90
10042;DHT22;5061;49.068;12.058;2022-11-27T04:31:30;1.80;99.90
10042;DHT22;5061;49.068;12.058;2022-11-27T04:34:51;1.80;99.90
10042;DHT22;5061;49.068;12.058;2022-11-27T04:38:12;1.80;99.90
10042;DHT22;5061;49.068;12.058;2022-11-27T04:41:33;1.80;99.90
10042;DHT22;5061;49.068;12.058;2022-11-27T04:44:53;1.80;99.90
10042;DHT22;5061;49.068;12.058;2022-11-27T04:48:14;1.80;99.90
10042;DHT22;5061;49.068;12.058;2022-11-27T04:51:34;1.90;99.90
10042;DHT22;5061;49.068;12.058;2022-11-27T04:54:55;1.90;99.90
10042;DHT22;5061;49.068;12.058;2022-11-27T04:58:16;1.90;99.90
10042;DHT22;5061;49.068;12.058;2022-11-27T05:01:36;2.00;99.90
10042;DHT22;5061;49.068;12.058;2022-11-27T05:04:57;2.00;99.90
10042;DHT22;5061;49.068;12.058;2022-11-27T05:08:17;2.00;99.90
10042;DHT22;5061;49.068;12.058;2022-11-27T05:11:38;2.00;99.90
10042;DHT22;5061;49.068;12.058;2022-11-27T05:14:59;2.10;99.90
10042;DHT22;5061;49.068;12.058;2022-11-27T05:18:20;2.10;99.90
10042;DHT22;5061;49.068;12.058;2022-11-27T05:21:41;2.10;99.90
10042;DHT22;5061;49.068;12.058;2022-11-27T05:25:02;2.10;99.90
10042;DHT22;5061;49.068;12.058;2022-11-27T05:28:23;2.20;99.90
10042;DHT22;5061;49.068;12.058;2022-11-27T05:31:44;2.20;99.90
10042;DHT22;5061;49.068;12.058;2022-11-27T05:35:05;2.20;99.90
10042;DHT22;5061;49.068;12.058;2022-11-27T05:38:26;2.20;99.90
10042;DHT22;5061;49.068;12.058;2022-11-27T05:41:46;2.30;99.90
10042;DHT22;5061;49.068;12.058;2022-11-27T05:45:07;2.30;99.90
10042;DHT22;5061;49.068;12.058;2022-11-27T05:48:28;2.30;99.90
10042;DHT22;5061;49.068;12.058;2022-11-27T05:51:48;2.30;99.90
10042;DHT22;5061;49.068;12.058;2022-11-27T05:55:09;2.30;99.90
10042;DHT22;5061;49.068;12.058;2022-11-27T05:58:30;2.30;99.90
10042;DHT22;5061;49.068;12.058;2022-11-27T06:01:51;2.40;99.90
10042;DHT22;5061;49.068;12.058;2022-11-27T06:05:11;2.40;99.90
10042;DHT22;5061;49.068;12.058;2022-11-27T06:08:32;2.40;99.90
10042;DHT22;5061;49.068;12.058;2022-11-27T06:11:53;2.40;99.90
10042;DHT22;5061;49.068;12.058;2022-11-27T06:15:13;2.40;99.90
10042;DHT22;5061;49.068;12.058;2022-11-27T06:18:37;2.40;99.90
10042;DHT22;5061;49.068;12.058;2022-11-27T06:21:57;2.40;99.90
10042;DHT22;5061;49.068;12.058;2022-11-27T06:25:18;2.40;99.90
10042;DHT22;5061;49.068;12.058;2022-11-27T06:28:39;2.40;99.90
10042;DHT22;5061;49.068;12.058;2022-11-27T06:32:00;2.40;99.90
10042;DHT22;5061;49.068;12.058;2022-11-27T06:35:20;2.40;99.90
10042;DHT22;5061;49.068;12.058;2022-11-27T06:38:42;2.40;99.90
10042;DHT22;5061;49.068;12.058;2022-11-27T06:42:03;2.40;99.90
10042;DHT22;5061;49.068;12.058;2022-11-27T06:45:23;2.50;99.90
10042;DHT22;5061;49.068;12.058;2022-11-27T06:48:46;2.50;99.90
10042;DHT22;5061;49.068;12.058;2022-11-27T06:52:07;2.50;99.90
10042;DHT22;5061;49.068;12.058;2022-11-27T06:55:28;2.50;99.90
10042;DHT22;5061;49.068;12.058;2022-11-27T06:58:54;2.50;99.90
10042;DHT22;5061;49.068;12.058;2022-11-27T07:02:15;2.50;99.90
10042;DHT22;5061;49.068;12.058;2022-11-27T07:05:36;2.50;99.90
10042;DHT22;5061;49.068;12.058;2022-11-27T07:08:56;2.50;99.90
10042;DHT22;5061;49.068;12.058;2022-11-27T07:12:17;2.50;99.90
10042;DHT22;5061;49.068;12.058;2022-11-27T07:15:38;2.50;99.90
10042;DHT22;5061;49.068;12.058;2022-11-27T07:19:01;2.50;99.90
10042;DHT22;5061;49.068;12.058;2022-11-27T07:22:22;2.50;99.90
10042;DHT22;5061;49.068;12.058;2022-11-27T07:25:42;2.50;99.90
10042;DHT22;5061;49.068;12.058;2022-11-27T07:29:03;2.50;99.90
10042;DHT22;5061;49.068;12.058;2022-11-27T07:32:23;2.60;99.90
10042;DHT22;5061;49.068;12.058;2022-11-27T07:35:44;2.60;99.90
10042;DHT22;5061;49.068;12.058;2022-11-27T07:39:04;2.60;99.90
10042;DHT22;5061;49.068;12.058;2022-11-27T07:42:27;2.60;99.90
10042;DHT22;5061;49.068;12.058;2022-11-27T07:45:47;2.60;99.90
10042;DHT22;5061;49.068;12.058;2022-11-27T07:49:08;2.60;99.90
10042;DHT22;5061;49.068;12.058;2022-11-27T07:52:29;2.60;99.90
10042;DHT22;5061;49.068;12.058;2022-11-27T07:55:49;2.60;99.90
10042;DHT22;5061;49.068;12.058;2022-11-27T07:59:10;2.60;99.90
10042;DHT22;5061;49.068;12.058;2022-11-27T08:02:30;2.60;99.90
10042;DHT22;5061;49.068;12.058;2022-11-27T08:05:51;2.60;99.90
10042;DHT22;5061;49.068;12.058;2022-11-27T08:09:11;2.70;99.90
10042;DHT22;5061;49.068;12.058;2022-11-27T08:12:32;2.70;99.90
10042;DHT22;5061;49.068;12.058;2022-11-27T08:15:53;2.70;99.90
10042;DHT22;5061;49.068;12.058;2022-11-27T08:19:13;2.70;99.90
10042;DHT22;5061;49.068;12.058;2022-11-27T08:22:34;2.70;99.90
10042;DHT22;5061;49.068;12.058;2022-11-27T08:25:55;2.70;99.90
10042;DHT22;5061;49.068;12.058;2022-11-27T08:29:15;2.70;99.90
10042;DHT22;5061;49.068;12.058;2022-11-27T08:32:41;2.70;99.90
10042;DHT22;5061;49.068;12.058;2022-11-27T08:36:02;2.70;99.90
10042;DHT22;5061;49.068;12.058;2022-11-27T08:39:23;2.70;99.90
10042;DHT22;5061;49.068;12.058;2022-11-27T08:42:45;2.70;99.90
10042;DHT22;5061;49.068;12.058;2022-11-27T08:46:06;2.80;99.90
10042;DHT22;5061;49.068;12.058;2022-11-27T08:49:27;2.80;99.90
10042;DHT22;5061;49.068;12.058;2022-11-27T08:52:50;2.80;99.90
10042;DHT22;5061;49.068;12.058;2022-11-27T08:56:19;2.80;99.90
10042;DHT22;5061;49.068;12.058;2022-11-27T08:59:40;2.90;99.90
10042;DHT22;5061;49.068;12.058;2022-11-27T09:03:01;2.90;99.90
10042;DHT22;5061;49.068;12.058;2022-11-27T09:06:27;3.00;99.90
10042;DHT22;5061;49.068;12.058;2022-11-27T09:09:48;3.00;99.90
10042;DHT22;5061;49.068;12.058;2022-11-27T09:13:09;3.00;99.90
10042;DHT22;5061;49.068;12.058;2022-11-27T09:16:36;3.10;99.90
10042;DHT22;5061;49.068;12.058;2022-11-27T09:19:57;3.10;99.90
10042;DHT22;5061;49.068;12.058;2022-11-27T09:23:20;3.20;99.90
10042;DHT22;5061;49.068;12.058;2022-11-27T09:26:50;3.20;99.90
10042;DHT22;5061;49.068;12.058;2022-11-27T09:30:11;3.20;99.90
10042;DHT22;5061;49.068;12.058;2022-11-27T09:33:34;3.20;99.90
10042;DHT22;5061;49.068;12.058;2022-11-27T09:36:55;3.30;99.90
10042;DHT22;5061;49.068;12.058;2022-11-27T09:40:18;3.30;99.90
10042;DHT22;5061;49.068;12.058;2022-11-27T09:44:02;3.40;99.90
10042;DHT22;5061;49.068;12.058;2022-11-27T09:47:40;3.40;99.90
10042;DHT22;5061;49.068;12.058;2022-11-27T09:51:09;3.40;99.90
10042;DHT22;5061;49.068;12.058;2022-11-27T09:54:46;3.40;99.90
10042;DHT22;5061;49.068;12.058;2022-11-27T09:58:25;3.40;99.90
10042;DHT22;5061;49.068;12.058;2022-11-27T10:01:51;3.40;99.90
10042;DHT22;5061;49.068;12.058;2022-11-27T10:05:28;3.40;99.90
10042;DHT22;5061;49.068;12.058;2022-11-27T10:09:09;3.40;99.90
10042;DHT22;5061;49.068;12.058;2022-11-27T10:12:56;3.40;99.90
10042;DHT22;5061;49.068;12.058;2022-11-27T10:26:48;3.50;99.90
10042;DHT22;5061;49.068;12.058;2022-11-27T10:30:18;3.50;99.90
10042;DHT22;5061;49.068;12.058;2022-11-27T10:34:14;3.50;99.90
10042;DHT22;5061;49.068;12.058;2022-11-27T10:37:47;3.50;99.90
10042;DHT22;5061;49.068;12.058;2022-11-27T10:41:31;3.50;99.90
10042;DHT22;5061;49.068;12.058;2022-11-27T10:45:23;3.50;99.90
10042;DHT22;5061;49.068;12.058;2022-11-27T10:48:45;3.60;99.90
10042;DHT22;5061;49.068;12.058;2022-11-27T10:52:26;3.50;99.90
10042;DHT22;5061;49.068;12.058;2022-11-27T11:03:27;3.60;99.90
10042;DHT22;5061;49.068;12.058;2022-11-27T11:06:55;3.60;99.90
10042;DHT22;5061;49.068;12.058;2022-11-27T11:10:43;3.60;99.90
10042;DHT22;5061;49.068;12.058;2022-11-27T11:14:18;3.60;99.90
10042;DHT22;5061;49.068;12.058;2022-11-27T11:17:38;3.60;99.90
10042;DHT22;5061;49.068;12.058;2022-11-27T11:21:04;3.60;99.90
10042;DHT22;5061;49.068;12.058;2022-11-27T11:24:29;3.60;99.90
10042;DHT22;5061;49.068;12.058;2022-11-27T11:27:51;3.60;99.90
10042;DHT22;5061;49.068;12.058;2022-11-27T11:31:38;3.60;99.90
10042;DHT22;5061;49.068;12.058;2022-11-27T11:35:03;3.60;99.90
10042;DHT22;5061;49.068;12.058;2022-11-27T11:38:28;3.60;99.90
10042;DHT22;5061;49.068;12.058;2022-11-27T11:41:50;3.60;99.90
10042;DHT22;5061;49.068;12.058;2022-11-27T11:48:32;3.60;99.90
10042;DHT22;5061;49.068;12.058;2022-11-27T11:59:47;3.70;99.90
10042;DHT22;5061;49.068;12.058;2022-11-27T12:18:17;3.70;99.90
10042;DHT22;5061;49.068;12.058;2022-11-27T12:43:26;3.80;99.90
10042;DHT22;5061;49.068;12.058;2022-11-27T12:50:29;3.70;99.90
10042;DHT22;5061;49.068;12.058;2022-11-27T12:57:21;3.70;99.90
10042;DHT22;5061;49.068;12.058;2022-11-27T13:00:42;3.70;99.90
10042;DHT22;5061;49.068;12.058;2022-11-27T13:09:02;3.70;99.90
10042;DHT22;5061;49.068;12.058;2022-11-27T13:16:26;3.70;99.90
10042;DHT22;5061;49.068;12.058;2022-11-27T13:19:49;3.70;99.90
10042;DHT22;5061;49.068;12.058;2022-11-27T13:23:10;3.70;99.90
10042;DHT22;5061;49.068;12.058;2022-11-27T13:26:55;3.70;99.90
10042;DHT22;5061;49.068;12.058;2022-11-27T13:30:25;3.70;99.90
10042;DHT22;5061;49.068;12.058;2022-11-27T13:33:47;3.70;99.90
10042;DHT22;5061;49.068;12.058;2022-11-27T13:40:54;3.70;99.90
10042;DHT22;5061;49.068;12.058;2022-11-27T13:44:25;3.70;99.90
10042;DHT22;5061;49.068;12.058;2022-11-27T13:47:46;3.70;99.90
10042;DHT22;5061;49.068;12.058;2022-11-27T13:51:08;3.70;99.90
10042;DHT22;5061;49.068;12.058;2022-11-27T13:54:29;3.70;99.90
10042;DHT22;5061;49.068;12.058;2022-11-27T13:57:55;3.70;99.90
10042;DHT22;5061;49.068;12.058;2022-11-27T14:01:16;3.60;99.90
10042;DHT22;5061;49.068;12.058;2022-11-27T14:04:50;3.60;99.90
10042;DHT22;5061;49.068;12.058;2022-11-27T14:11:43;3.60;99.90
10042;DHT22;5061;49.068;12.058;2022-11-27T14:18:37;3.60;99.90
10042;DHT22;5061;49.068;12.058;2022-11-27T14:21:58;3.60;99.90
10042;DHT22;5061;49.068;12.058;2022-11-27T14:25:32;3.70;99.90
10042;DHT22;5061;49.068;12.058;2022-11-27T14:28:56;3.60;99.90
10042;DHT22;5061;49.068;12.058;2022-11-27T14:32:19;3.70;99.90
10042;DHT22;5061;49.068;12.058;2022-11-27T14:35:39;3.70;99.90
10042;DHT22;5061;49.068;12.058;2022-11-27T14:39:01;3.70;99.90
10042;DHT22;5061;49.068;12.058;2022-11-27T14:42:24;3.60;99.90
10042;DHT22;5061;49.068;12.058;2022-11-27T14:45:48;3.60;99.90
10042;DHT22;5061;49.068;12.058;2022-11-27T14:49:19;3.60;99.90
10042;DHT22;5061;49.068;12.058;2022-11-27T14:52:42;3.60;99.90
10042;DHT22;5061;49.068;12.058;2022-11-27T14:56:03;3.60;99.90
10042;DHT22;5061;49.068;12.058;2022-11-27T14:59:25;3.60;99.90
10042;DHT22;5061;49.068;12.058;2022-11-27T15:02:48;3.60;99.90
10042;DHT22;5061;49.068;12.058;2022-11-27T15:06:16;3.60;99.90
10042;DHT22;5061;49.068;12.058;2022-11-27T15:09:43;3.60;99.90
10042;DHT22;5061;49.068;12.058;2022-11-27T15:13:06;3.60;99.90
10042;DHT22;5061;49.068;12.058;2022-11-27T15:16:30;3.60;99.90
10042;DHT22;5061;49.068;12.058;2022-11-27T15:19:52;3.60;99.90
10042;DHT22;5061;49.068;12.058;2022-11-27T15:23:15;3.60;99.90
10042;DHT22;5061;49.068;12.058;2022-11-27T15:26:38;3.60;99.90
10042;DHT22;5061;49.068;12.058;2022-11-27T15:33:28;3.50;99.90
10042;DHT22;5061;49.068;12.058;2022-11-27T15:36:59;3.50;99.90
10042;DHT22;5061;49.068;12.058;2022-11-27T15:40:37;3.50;99.90
10042;DHT22;5061;49.068;12.058;2022-11-27T15:43:58;3.50;99.90
10042;DHT22;5061;49.068;12.058;2022-11-27T15:50:46;3.40;99.90
10042;DHT22;5061;49.068;12.058;2022-11-27T15:54:06;3.50;99.90
10042;DHT22;5061;49.068;12.058;2022-11-27T15:57:27;3.40;99.90
10042;DHT22;5061;49.068;12.058;2022-11-27T16:00:48;3.40;99.90
10042;DHT22;5061;49.068;12.058;2022-11-27T16:04:08;3.40;99.90
10042;DHT22;5061;49.068;12.058;2022-11-27T16:07:29;3.40;99.90
10042;DHT22;5061;49.068;12.058;2022-11-27T16:10:50;3.40;99.90
10042;DHT22;5061;49.068;12.058;2022-11-27T16:14:11;3.40;99.90
10042;DHT22;5061;49.068;12.058;2022-11-27T16:17:32;3.40;99.90
10042;DHT22;5061;49.068;12.058;2022-11-27T16:20:52;3.30;99.90
10042;DHT22;5061;49.068;12.058;2022-11-27T16:24:13;3.30;99.90
10042;DHT22;5061;49.068;12.058;2022-11-27T16:27:34;3.20;99.90
10042;DHT22;5061;49.068;12.058;2022-11-27T16:30:57;3.20;99.90
10042;DHT22;5061;49.068;12.058;2022-11-27T16:34:18;3.20;99.90
10042;DHT22;5061;49.068;12.058;2022-11-27T16:37:40;3.20;99.90
10042;DHT22;5061;49.068;12.058;2022-11-27T16:41:03;3.10;99.90
10042;DHT22;5061;49.068;12.058;2022-11-27T16:44:23;3.10;99.90
10042;DHT22;5061;49.068;12.058;2022-11-27T16:47:44;3.10;99.90
10042;DHT22;5061;49.068;12.058;2022-11-27T16:51:09;3.10;99.90
10042;DHT22;5061;49.068;12.058;2022-11-27T16:54:30;3.10;99.90
10042;DHT22;5061;49.068;12.058;2022-11-27T16:57:51;3.10;99.90
10042;DHT22;5061;49.068;12.058;2022-11-27T17:01:17;3.10;99.90
10042;DHT22;5061;49.068;12.058;2022-11-27T17:04:38;3.10;99.90
10042;DHT22;5061;49.068;12.058;2022-11-27T17:07:59;3.00;99.90
10042;DHT22;5061;49.068;12.058;2022-11-27T17:11:21;3.00;99.90
10042;DHT22;5061;49.068;12.058;2022-11-27T17:14:44;3.00;99.90
10042;DHT22;5061;49.068;12.058;2022-11-27T17:18:09;3.00;99.90
10042;DHT22;5061;49.068;12.058;2022-11-27T17:21:32;3.00;99.90
10042;DHT22;5061;49.068;12.058;2022-11-27T17:24:53;3.00;99.90
10042;DHT22;5061;49.068;12.058;2022-11-27T17:28:16;3.00;99.90
10042;DHT22;5061;49.068;12.058;2022-11-27T17:31:38;3.00;99.90
10042;DHT22;5061;49.068;12.058;2022-11-27T17:34:59;3.00;99.90
10042;DHT22;5061;49.068;12.058;2022-11-27T17:38:19;3.00;99.90
10042;DHT22;5061;49.068;12.058;2022-11-27T17:41:41;3.00;99.90
10042;DHT22;5061;49.068;12.058;2022-11-27T17:45:04;3.00;99.90
10042;DHT22;5061;49.068;12.058;2022-11-27T17:48:25;3.00;99.90
10042;DHT22;5061;49.068;12.058;2022-11-27T17:51:46;3.00;99.90
10042;DHT22;5061;49.068;12.058;2022-11-27T17:55:07;3.00;99.90
10042;DHT22;5061;49.068;12.058;2022-11-27T17:58:27;3.00;99.90
10042;DHT22;5061;49.068;12.058;2022-11-27T18:01:48;3.00;99.90
10042;DHT22;5061;49.068;12.058;2022-11-27T18:05:12;3.00;99.90
10042;DHT22;5061;49.068;12.058;2022-11-27T18:08:33;3.00;99.90
10042;DHT22;5061;49.068;12.058;2022-11-27T18:11:53;3.00;99.90
10042;DHT22;5061;49.068;12.058;2022-11-27T18:15:15;3.00;99.90
10042;DHT22;5061;49.068;12.058;2022-11-27T18:18:36;3.00;99.90
10042;DHT22;5061;49.068;12.058;2022-11-27T18:21:56;3.00;99.90
10042;DHT22;5061;49.068;12.058;2022-11-27T18:25:18;3.00;99.90
10042;DHT22;5061;49.068;12.058;2022-11-27T18:28:41;3.00;99.90
10042;DHT22;5061;49.068;12.058;2022-11-27T18:32:01;3.00;99.90
10042;DHT22;5061;49.068;12.058;2022-11-27T18:35:22;3.00;99.90
10042;DHT22;5061;49.068;12.058;2022-11-27T18:38:44;3.00;99.90
10042;DHT22;5061;49.068;12.058;2022-11-27T18:42:06;3.00;99.90
10042;DHT22;5061;49.068;12.058;2022-11-27T18:45:29;3.00;99.90
10042;DHT22;5061;49.068;12.058;2022-11-27T18:48:50;3.00;99.90
10042;DHT22;5061;49.068;12.058;2022-11-27T18:52:12;3.00;99.90
10042;DHT22;5061;49.068;12.058;2022-11-27T18:55:35;3.00;99.90
10042;DHT22;5061;49.068;12.058;2022-11-27T18:59:00;3.00;99.90
10042;DHT22;5061;49.068;12.058;2022-11-27T19:02:20;3.00;99.90
10042;DHT22;5061;49.068;12.058;2022-11-27T19:05:41;3.00;99.90
10042;DHT22;5061;49.068;12.058;2022-11-27T19:09:02;3.00;99.90
10042;DHT22;5061;49.068;12.058;2022-11-27T19:12:22;3.00;99.90
10042;DHT22;5061;49.068;12.058;2022-11-27T19:15:43;3.00;99.90
10042;DHT22;5061;49.068;12.058;2022-11-27T19:19:06;3.00;99.90
10042;DHT22;5061;49.068;12.058;2022-11-27T19:22:27;3.00;99.90
10042;DHT22;5061;49.068;12.058;2022-11-27T19:25:48;3.00;99.90
10042;DHT22;5061;49.068;12.058;2022-11-27T19:29:14;3.00;99.90
10042;DHT22;5061;49.068;12.058;2022-11-27T19:32:37;3.00;99.90
10042;DHT22;5061;49.068;12.058;2022-11-27T19:35:59;3.00;99.90
10042;DHT22;5061;49.068;12.058;2022-11-27T19:39:20;3.00;99.90
10042;DHT22;5061;49.068;12.058;2022-11-27T19:42:41;3.00;99.90
10042;DHT22;5061;49.068;12.058;2022-11-27T19:46:02;3.00;99.90
10042;DHT22;5061;49.068;12.058;2022-11-27T19:49:31;3.00;99.90
10042;DHT22;5061;49.068;12.058;2022-11-27T19:52:51;3.00;99.90
10042;DHT22;5061;49.068;12.058;2022-11-27T19:56:12;3.00;99.90
10042;DHT22;5061;49.068;12.058;2022-11-27T19:59:33;3.00;99.90
10042;DHT22;5061;49.068;12.058;2022-11-27T20:02:53;3.00;99.90
10042;DHT22;5061;49.068;12.058;2022-11-27T20:06:19;3.00;99.90
10042;DHT22;5061;49.068;12.058;2022-11-27T20:09:40;3.00;99.90
10042;DHT22;5061;49.068;12.058;2022-11-27T20:13:01;3.00;99.90
10042;DHT22;5061;49.068;12.058;2022-11-27T20:16:22;3.00;99.90
10042;DHT22;5061;49.068;12.058;2022-11-27T20:19:42;3.00;99.90
10042;DHT22;5061;49.068;12.058;2022-11-27T20:23:03;3.00;99.90
10042;DHT22;5061;49.068;12.058;2022-11-27T20:26:25;3.00;99.90
10042;DHT22;5061;49.068;12.058;2022-11-27T20:29:46;3.00;99.90
10042;DHT22;5061;49.068;12.058;2022-11-27T20:33:06;3.00;99.90
10042;DHT22;5061;49.068;12.058;2022-11-27T20:36:32;3.10;99.90
10042;DHT22;5061;49.068;12.058;2022-11-27T20:39:53;3.00;99.90
10042;DHT22;5061;49.068;12.058;2022-11-27T20:43:14;3.00;99.90
10042;DHT22;5061;49.068;12.058;2022-11-27T20:46:37;3.00;99.90
10042;DHT22;5061;49.068;12.058;2022-11-27T20:49:58;3.00;99.90
10042;DHT22;5061;49.068;12.058;2022-11-27T20:53:19;3.00;99.90
10042;DHT22;5061;49.068;12.058;2022-11-27T20:56:39;3.10;99.90
10042;DHT22;5061;49.068;12.058;2022-11-27T21:00:03;3.00;99.90
10042;DHT22;5061;49.068;12.058;2022-11-27T21:03:28;3.00;99.90
10042;DHT22;5061;49.068;12.058;2022-11-27T21:06:49;3.10;99.90
10042;DHT22;5061;49.068;12.058;2022-11-27T21:10:13;3.00;99.90
10042;DHT22;5061;49.068;12.058;2022-11-27T21:13:33;3.00;99.90
10042;DHT22;5061;49.068;12.058;2022-11-27T21:16:57;3.10;99.90
10042;DHT22;5061;49.068;12.058;2022-11-27T21:20:24;3.00;99.90
10042;DHT22;5061;49.068;12.058;2022-11-27T21:23:48;3.10;99.90
10042;DHT22;5061;49.068;12.058;2022-11-27T21:27:10;3.10;99.90
10042;DHT22;5061;49.068;12.058;2022-11-27T21:30:30;3.10;99.90
10042;DHT22;5061;49.068;12.058;2022-11-27T21:33:56;3.00;99.90
10042;DHT22;5061;49.068;12.058;2022-11-27T21:37:17;3.10;99.90
10042;DHT22;5061;49.068;12.058;2022-11-27T21:40:38;3.00;99.90
10042;DHT22;5061;49.068;12.058;2022-11-27T21:44:00;3.10;99.90
10042;DHT22;5061;49.068;12.058;2022-11-27T21:47:21;3.00;99.90
10042;DHT22;5061;49.068;12.058;2022-11-27T21:50:41;3.10;99.90
10042;DHT22;5061;49.068;12.058;2022-11-27T21:54:06;3.00;99.90
10042;DHT22;5061;49.068;12.058;2022-11-27T21:57:27;3.10;99.90
10042;DHT22;5061;49.068;12.058;2022-11-27T22:00:49;3.10;99.90
10042;DHT22;5061;49.068;12.058;2022-11-27T22:04:10;3.00;99.90
10042;DHT22;5061;49.068;12.058;2022-11-27T22:07:30;3.10;99.90
10042;DHT22;5061;49.068;12.058;2022-11-27T22:10:51;3.10;99.90
10042;DHT22;5061;49.068;12.058;2022-11-27T22:14:13;3.00;99.90
10042;DHT22;5061;49.068;12.058;2022-11-27T22:17:34;3.10;99.90
10042;DHT22;5061;49.068;12.058;2022-11-27T22:20:55;3.10;99.90
10042;DHT22;5061;49.068;12.058;2022-11-27T22:24:15;3.10;99.90
10042;DHT22;5061;49.068;12.058;2022-11-27T22:27:36;3.10;99.90
10042;DHT22;5061;49.068;12.058;2022-11-27T22:30:57;3.10;99.90
10042;DHT22;5061;49.068;12.058;2022-11-27T22:34:17;3.10;99.90
10042;DHT22;5061;49.068;12.058;2022-11-27T22:37:38;3.10;99.90
10042;DHT22;5061;49.068;12.058;2022-11-27T22:40:58;3.10;99.90
10042;DHT22;5061;49.068;12.058;2022-11-27T22:44:19;3.10;99.90
10042;DHT22;5061;49.068;12.058;2022-11-27T22:47:42;3.10;99.90
10042;DHT22;5061;49.068;12.058;2022-11-27T22:51:03;3.00;99.90
10042;DHT22;5061;49.068;12.058;2022-11-27T22:54:23;3.00;99.90
10042;DHT22;5061;49.068;12.058;2022-11-27T22:57:44;3.00;99.90
10042;DHT22;5061;49.068;12.058;2022-11-27T23:01:06;3.00;99.90
10042;DHT22;5061;49.068;12.058;2022-11-27T23:04:27;3.00;99.90
10042;DHT22;5061;49.068;12.058;2022-11-27T23:07:47;2.90;99.90
10042;DHT22;5061;49.068;12.058;2022-11-27T23:11:09;3.00;99.90
10042;DHT22;5061;49.068;12.058;2022-11-27T23:14:30;3.00;99.90
10042;DHT22;5061;49.068;12.058;2022-11-27T23:17:51;2.90;99.90
10042;DHT22;5061;49.068;12.058;2022-11-27T23:21:14;2.90;99.90
10042;DHT22;5061;49.068;12.058;2022-11-27T23:24:35;2.90;99.90
10042;DHT22;5061;49.068;12.058;2022-11-27T23:27:55;2.90;99.90
10042;DHT22;5061;49.068;12.058;2022-11-27T23:31:19;3.00;99.90
10042;DHT22;5061;49.068;12.058;2022-11-27T23:34:40;3.00;99.90
10042;DHT22;5061;49.068;12.058;2022-11-27T23:38:00;3.00;99.90
10042;DHT22;5061;49.068;12.058;2022-11-27T23:41:24;3.00;99.90